Terminal Aerodrome Forecast
Issued by NWS Wichita, KS

Home | Current Version | Previous Version | Text Only | Print | Product List | Glossary On
Versions: 1 2 3 4 5 6 7 8 9 10 11 12 13 14 15 16 17 18 19 20 21 22 23 24 25 26 27 28 29
000
FTUS43 KICT 181217 AAA
TAFICT
TAF AMD
KICT 181217Z 1812/1912 06004KT 1SM BR OVC004
      TEMPO 1812/1816 2SM BR
     FM181600 07004KT 2SM BR OVC004
     FM181800 00000KT 4SM BR OVC005
     FM182100 02004KT 6SM BR OVC008=

USA.gov is the U.S. government's official web portal to all federal, state and local government web resources and services.